logo tempoitalia

Diretta Meteo Lake Havasu City, Stati Uniti (USA)domenica 30 agosto ore 23:35

Mappa
Sereno 31 °C Sereno 24 Ore: T.min 29 T.max 42
Ponente Nord Km/h 5.5 Punto di rugiada: 22 °C Umidità: 58% Visibilità: 10 Km
Il sole sorge alle: 06:09 Il sole tramonta alle: 19:06
30 Agosto 2026 23:35 tempo osservato: Sereno Sereno 31 58 1008 vento: Nord N 5.5
30 Agosto 2026 23:15 tempo osservato: Sereno Sereno 31 58 1007 vento: Nord N 0
30 Agosto 2026 22:55 tempo osservato: Sereno Sereno 31 55 1007 vento: Nord E/NE 7.4
30 Agosto 2026 22:35 tempo osservato: Sereno Sereno 31 55 1007 vento: Nord E/NE 9.3
30 Agosto 2026 22:15 tempo osservato: Sereno Sereno 32 49 1007 vento: Nord N 5.5
30 Agosto 2026 21:55 tempo osservato: Sereno Sereno 32 49 1007 vento: Nord N/NE 9.3
30 Agosto 2026 21:35 tempo osservato: Sereno Sereno 32 49 1007 vento: Nord N 9.3
30 Agosto 2026 21:15 tempo osservato: Sereno Sereno 32 49 1007 vento: Nord N 5.5
30 Agosto 2026 20:55 tempo osservato: Sereno Sereno 32 49 1007 vento: Nord N 7.4
30 Agosto 2026 20:35 tempo osservato: Temporale nelle vicinanze Temporale nelle vicinanze 33 43 1007 vento: Nord E/NE 7.4
30 Agosto 2026 20:15 tempo osservato: Temporale nelle vicinanze Temporale nelle vicinanze 32 43 1006 vento: Nord E/NE 18.5
30 Agosto 2026 19:55 tempo osservato: Temporale nelle vicinanze Temporale nelle vicinanze 31 48 1006 vento: Nord E/NE 38.8
30 Agosto 2026 19:35 tempo osservato: Temporale Foschia Temporale Foschia 31 52 1007 vento: Nord E 25.9
30 Agosto 2026 19:15 tempo osservato: Temporale Foschia Temporale Foschia 29 66 1006 vento: Nord NE 31.5
30 Agosto 2026 18:55 tempo osservato: Temporale Foschia Temporale Foschia 30 62 1006 vento: Nord S 44.4
30 Agosto 2026 18:35 tempo osservato: Temporale nelle vicinanze Temporale nelle vicinanze 39 27 1005 vento: Nord E/SE 31.5
30 Agosto 2026 18:15 tempo osservato: Temporale nelle vicinanze Temporale nelle vicinanze 39 27 1005 vento: Nord E/SE 35.2
30 Agosto 2026 17:55 tempo osservato: Poco Nuvoloso Poco Nuvoloso 41 23 1005 vento: Nord S 27.8
30 Agosto 2026 17:35 tempo osservato: Poco Nuvoloso Poco Nuvoloso 41 20 1005 vento: Nord SO 22.2
30 Agosto 2026 17:15 tempo osservato: Poco Nuvoloso Poco Nuvoloso 41 23 1005 vento: Nord S 20.3
30 Agosto 2026 16:55 tempo osservato: Poco Nuvoloso Poco Nuvoloso 41 23 1005 vento: Nord S/SO 16.7
30 Agosto 2026 16:35 tempo osservato: Sereno Sereno 41 23 1005 vento: Nord S 24
30 Agosto 2026 16:15 tempo osservato: Sereno Sereno 40 24 1006 vento: Nord S 22.2
30 Agosto 2026 15:55 tempo osservato: Sereno Sereno 42 22 1006 vento: Nord S/SO 22.2
30 Agosto 2026 15:35 tempo osservato: Sereno Sereno 41 21 1006 vento: Nord S 22.2
30 Agosto 2026 15:15 tempo osservato: Sereno Sereno 41 21 1007 vento: Nord S 20.3
30 Agosto 2026 14:55 tempo osservato: Sereno Sereno 41 20 1007 vento: Nord S/SO 18.5
30 Agosto 2026 14:35 tempo osservato: Sereno Sereno 41 19 1007 vento: Nord S/SE 18.5
30 Agosto 2026 14:15 tempo osservato: Sereno Sereno 41 18 1008 vento: Nord S/SE 18.5
30 Agosto 2026 13:55 tempo osservato: Sereno Sereno 41 18 1008 vento: Nord S/SO 22.2
30 Agosto 2026 13:35 tempo osservato: Sereno Sereno 41 18 1009 vento: Nord S/SE 24
30 Agosto 2026 13:15 tempo osservato: Sereno Sereno 41 18 1009 vento: Nord S/SO 24
30 Agosto 2026 12:55 tempo osservato: Sereno Sereno 40 17 1009 vento: Nord S/SO 25.9
30 Agosto 2026 12:35 tempo osservato: Sereno Sereno 40 19 1009 vento: Nord S 22.2
30 Agosto 2026 12:15 tempo osservato: Sereno Sereno 40 19 1009 vento: Nord S 27.8
30 Agosto 2026 11:55 tempo osservato: Sereno Sereno 40 19 1010 vento: Nord S/SO 20.3
30 Agosto 2026 11:35 tempo osservato: Sereno Sereno 39 18 1010 vento: Nord S/SE 27.8
30 Agosto 2026 11:15 tempo osservato: Sereno Sereno 39 18 1010 vento: Nord S 24
30 Agosto 2026 10:55 tempo osservato: Sereno Sereno 39 18 1010 vento: Nord S 25.9
30 Agosto 2026 10:35 tempo osservato: Sereno Sereno 39 20 1010 vento: Nord S 29.6
30 Agosto 2026 10:15 tempo osservato: Sereno Sereno 38 21 1010 vento: Nord S 27.8
30 Agosto 2026 09:55 tempo osservato: Sereno Sereno 38 21 1010 vento: Nord S 29.6
30 Agosto 2026 09:35 tempo osservato: Sereno Sereno 37 23 1010 vento: Nord S/SE 31.5
30 Agosto 2026 09:15 tempo osservato: Sereno Sereno 37 23 1010 vento: Nord S/SE 27.8
30 Agosto 2026 08:55 tempo osservato: Sereno Sereno 37 23 1010 vento: Nord SE 29.6
30 Agosto 2026 08:35 tempo osservato: Sereno Sereno 36 25 1010 vento: Nord S/SE 24
30 Agosto 2026 08:15 tempo osservato: Sereno Sereno 36 26 1010 vento: Nord S/SE 24
30 Agosto 2026 07:55 tempo osservato: Sereno Sereno 35 28 1009 vento: Nord S/SE 22.2
30 Agosto 2026 07:35 tempo osservato: Sereno Sereno 35 28 1009 vento: Nord S/SE 22.2
30 Agosto 2026 07:15 tempo osservato: Sereno Sereno 35 26 1009 vento: Nord SE 18.5
30 Agosto 2026 06:55 tempo osservato: Poco Nuvoloso Poco Nuvoloso 34 28 1009 vento: Nord S/SE 18.5
30 Agosto 2026 06:35 tempo osservato: Sereno Sereno 34 26 1009 vento: Nord SE 20.3
30 Agosto 2026 06:15 tempo osservato: Sereno Sereno 34 26 1008 vento: Nord SE 29.6
30 Agosto 2026 05:55 tempo osservato: Sereno Sereno 35 23 1008 vento: Nord SE 27.8
30 Agosto 2026 05:35 tempo osservato: Sereno Sereno 35 23 1008 vento: Nord E/SE 24
30 Agosto 2026 05:15 tempo osservato: Sereno Sereno 35 23 1008 vento: Nord SE 24
30 Agosto 2026 04:55 tempo osservato: Sereno Sereno 35 23 1008 vento: Nord E/SE 20.3
30 Agosto 2026 04:35 tempo osservato: Sereno Sereno 35 24 1007 vento: Nord SE 16.7
30 Agosto 2026 04:15 tempo osservato: Sereno Sereno 35 24 1007 vento: Nord E/SE 16.7
30 Agosto 2026 03:55 tempo osservato: Sereno Sereno 35 24 1007 vento: Nord E/SE 20.3
30 Agosto 2026 03:35 tempo osservato: Sereno Sereno 35 24 1007 vento: Nord E/SE 18.5
30 Agosto 2026 03:15 tempo osservato: Sereno Sereno 35 24 1007 vento: Nord E/SE 18.5
30 Agosto 2026 02:55 tempo osservato: Sereno Sereno 35 24 1007 vento: Nord E/SE 18.5
30 Agosto 2026 02:35 tempo osservato: Sereno Sereno 35 24 1007 vento: Nord SE 7.4
30 Agosto 2026 02:15 tempo osservato: Sereno Sereno 35 23 1006 vento: Nord N 5.5
30 Agosto 2026 01:55 tempo osservato: Sereno Sereno 35 23 1006 vento: Nord N 7.4
30 Agosto 2026 01:35 tempo osservato: Sereno Sereno 36 22 1006 vento: Nord S 7.4
30 Agosto 2026 01:15 tempo osservato: Sereno Sereno 36 22 1006 vento: Nord E/SE 9.3
30 Agosto 2026 00:55 tempo osservato: Sereno Sereno 36 22 1006 vento: Nord E/SE 13
30 Agosto 2026 00:35 tempo osservato: Sereno Sereno 37 19 1006 vento: Nord E/SE 11.1
30 Agosto 2026 00:15 tempo osservato: Sereno Sereno 37 19 1006 vento: Nord E 11.1
29 Agosto 2026 23:55 tempo osservato: Sereno Sereno 37 19 1006 vento: Nord E/SE 9.3
29 Agosto 2026 23:35 tempo osservato: Sereno Sereno 38 18 1006 vento: Nord N 5.5